sensor_id;sensor_type;location;lat;lon;timestamp;pressure;altitude;pressure_sealevel;temperature;humidity
40940;BME280;26666;50.156;7.700;2023-02-10T00:01:36;102433.03;;;-0.75;86.06
40940;BME280;26666;50.156;7.700;2023-02-10T00:06:37;102445.25;;;-1.01;88.41
40940;BME280;26666;50.156;7.700;2023-02-10T00:11:39;102452.22;;;-1.15;87.35
40940;BME280;26666;50.156;7.700;2023-02-10T00:16:41;102447.91;;;-1.19;87.69
40940;BME280;26666;50.156;7.700;2023-02-10T00:21:42;102451.41;;;-1.29;87.70
40940;BME280;26666;50.156;7.700;2023-02-10T00:26:44;102453.13;;;-1.31;87.79
40940;BME280;26666;50.156;7.700;2023-02-10T00:31:46;102455.69;;;-1.25;88.25
40940;BME280;26666;50.156;7.700;2023-02-10T00:36:49;102469.50;;;-1.15;89.19
40940;BME280;26666;50.156;7.700;2023-02-10T00:41:51;102479.03;;;-1.19;87.76
40940;BME280;26666;50.156;7.700;2023-02-10T00:46:52;102478.19;;;-1.27;88.63
40940;BME280;26666;50.156;7.700;2023-02-10T00:51:53;102480.81;;;-1.33;88.90
40940;BME280;26666;50.156;7.700;2023-02-10T00:56:55;102491.09;;;-0.93;87.28
40940;BME280;26666;50.156;7.700;2023-02-10T01:01:56;102488.53;;;-1.13;89.40
40940;BME280;26666;50.156;7.700;2023-02-10T01:06:58;102504.09;;;-1.04;88.98
40940;BME280;26666;50.156;7.700;2023-02-10T01:11:59;102498.00;;;-0.89;89.61
40940;BME280;26666;50.156;7.700;2023-02-10T01:17:01;102497.03;;;-0.62;88.89
40940;BME280;26666;50.156;7.700;2023-02-10T01:22:02;102503.00;;;-0.49;88.94
40940;BME280;26666;50.156;7.700;2023-02-10T01:27:04;102506.59;;;-0.81;90.05
40940;BME280;26666;50.156;7.700;2023-02-10T01:32:05;102497.81;;;-0.46;90.55
40940;BME280;26666;50.156;7.700;2023-02-10T01:37:07;102496.09;;;-0.53;90.23
40940;BME280;26666;50.156;7.700;2023-02-10T01:42:13;102489.16;;;-0.50;91.44
40940;BME280;26666;50.156;7.700;2023-02-10T01:47:14;102501.28;;;-0.50;90.50
40940;BME280;26666;50.156;7.700;2023-02-10T01:52:24;102502.84;;;-0.20;91.16
40940;BME280;26666;50.156;7.700;2023-02-10T01:57:28;102502.88;;;-0.29;91.17
40940;BME280;26666;50.156;7.700;2023-02-10T02:02:30;102504.56;;;-0.21;92.24
40940;BME280;26666;50.156;7.700;2023-02-10T02:07:34;102516.38;;;0.25;90.93
40940;BME280;26666;50.156;7.700;2023-02-10T02:12:56;102521.03;;;-0.20;91.19
40940;BME280;26666;50.156;7.700;2023-02-10T02:33:51;102527.72;;;0.13;93.53
40940;BME280;26666;50.156;7.700;2023-02-10T02:39:02;102531.97;;;0.28;92.77
40940;BME280;26666;50.156;7.700;2023-02-10T02:44:05;102529.34;;;0.31;92.42
40940;BME280;26666;50.156;7.700;2023-02-10T02:54:36;102536.31;;;0.23;95.37
40940;BME280;26666;50.156;7.700;2023-02-10T02:59:53;102537.16;;;0.28;95.91
40940;BME280;26666;50.156;7.700;2023-02-10T03:04:59;102543.22;;;0.33;95.83
40940;BME280;26666;50.156;7.700;2023-02-10T03:10:02;102548.28;;;0.49;95.61
40940;BME280;26666;50.156;7.700;2023-02-10T03:15:04;102541.41;;;0.40;96.15
40940;BME280;26666;50.156;7.700;2023-02-10T03:20:06;102539.69;;;0.39;98.26
40940;BME280;26666;50.156;7.700;2023-02-10T03:25:08;102538.84;;;0.34;97.85
40940;BME280;26666;50.156;7.700;2023-02-10T03:30:10;102551.81;;;0.38;98.35
40940;BME280;26666;50.156;7.700;2023-02-10T03:35:11;102553.63;;;0.29;97.55
40940;BME280;26666;50.156;7.700;2023-02-10T03:40:13;102555.91;;;0.67;97.47
40940;BME280;26666;50.156;7.700;2023-02-10T03:45:15;102555.97;;;0.63;96.82
40940;BME280;26666;50.156;7.700;2023-02-10T03:50:16;102568.19;;;0.51;98.17
40940;BME280;26666;50.156;7.700;2023-02-10T03:55:18;102568.94;;;0.67;99.12
40940;BME280;26666;50.156;7.700;2023-02-10T04:00:19;102563.72;;;0.64;97.86
40940;BME280;26666;50.156;7.700;2023-02-10T04:05:21;102571.59;;;0.59;99.10
40940;BME280;26666;50.156;7.700;2023-02-10T04:10:22;102566.13;;;0.87;98.26
40940;BME280;26666;50.156;7.700;2023-02-10T04:15:24;102575.75;;;0.79;97.72
40940;BME280;26666;50.156;7.700;2023-02-10T04:20:26;102576.59;;;0.84;98.78
40940;BME280;26666;50.156;7.700;2023-02-10T04:25:27;102580.13;;;0.74;96.77
40940;BME280;26666;50.156;7.700;2023-02-10T04:30:29;102578.41;;;0.76;98.68
40940;BME280;26666;50.156;7.700;2023-02-10T04:35:30;102575.88;;;0.68;99.02
40940;BME280;26666;50.156;7.700;2023-02-10T04:40:32;102577.31;;;0.97;99.22
40940;BME280;26666;50.156;7.700;2023-02-10T04:45:33;102571.16;;;1.06;98.55
40940;BME280;26666;50.156;7.700;2023-02-10T04:50:38;102573.72;;;1.12;99.41
40940;BME280;26666;50.156;7.700;2023-02-10T04:55:39;102578.06;;;1.08;98.70
40940;BME280;26666;50.156;7.700;2023-02-10T05:00:41;102583.28;;;1.11;97.78
40940;BME280;26666;50.156;7.700;2023-02-10T05:05:42;102584.22;;;1.03;98.54
40940;BME280;26666;50.156;7.700;2023-02-10T05:10:44;102588.56;;;1.04;97.94
40940;BME280;26666;50.156;7.700;2023-02-10T05:15:46;102591.16;;;1.05;98.33
40940;BME280;26666;50.156;7.700;2023-02-10T05:20:48;102586.88;;;0.96;99.21
40940;BME280;26666;50.156;7.700;2023-02-10T05:25:50;102581.78;;;0.84;100.00
40940;BME280;26666;50.156;7.700;2023-02-10T05:30:51;102578.31;;;0.84;99.20
40940;BME280;26666;50.156;7.700;2023-02-10T05:35:53;102578.22;;;0.91;100.00
40940;BME280;26666;50.156;7.700;2023-02-10T05:40:54;102567.88;;;0.88;100.00
40940;BME280;26666;50.156;7.700;2023-02-10T05:45:56;102562.53;;;1.01;100.00
40940;BME280;26666;50.156;7.700;2023-02-10T05:50:57;102559.06;;;1.00;99.13
40940;BME280;26666;50.156;7.700;2023-02-10T05:55:58;102558.16;;;1.04;100.00
40940;BME280;26666;50.156;7.700;2023-02-10T06:01:00;102559.84;;;1.11;98.91
40940;BME280;26666;50.156;7.700;2023-02-10T06:06:02;102547.03;;;0.90;98.51
40940;BME280;26666;50.156;7.700;2023-02-10T06:11:04;102556.63;;;0.82;98.41
40940;BME280;26666;50.156;7.700;2023-02-10T06:16:05;102561.06;;;0.75;97.46
40940;BME280;26666;50.156;7.700;2023-02-10T06:21:07;102571.53;;;0.64;97.15
40940;BME280;26666;50.156;7.700;2023-02-10T06:26:09;102568.03;;;0.70;95.90
40940;BME280;26666;50.156;7.700;2023-02-10T06:31:10;102577.00;;;0.33;96.77
40940;BME280;26666;50.156;7.700;2023-02-10T06:36:13;102577.88;;;0.31;95.59
40940;BME280;26666;50.156;7.700;2023-02-10T06:41:14;102584.88;;;0.21;95.96
40940;BME280;26666;50.156;7.700;2023-02-10T06:46:16;102589.22;;;0.24;95.08
40940;BME280;26666;50.156;7.700;2023-02-10T06:51:18;102604.88;;;0.14;95.36
40940;BME280;26666;50.156;7.700;2023-02-10T06:56:19;102606.72;;;-0.11;96.17
40940;BME280;26666;50.156;7.700;2023-02-10T07:01:21;102617.09;;;-0.03;93.79
40940;BME280;26666;50.156;7.700;2023-02-10T07:06:22;102617.97;;;-0.06;94.66
40940;BME280;26666;50.156;7.700;2023-02-10T07:11:24;102624.91;;;-0.08;96.06
40940;BME280;26666;50.156;7.700;2023-02-10T07:16:26;102625.66;;;0.11;94.55
40940;BME280;26666;50.156;7.700;2023-02-10T07:21:28;102627.28;;;0.35;94.59
40940;BME280;26666;50.156;7.700;2023-02-10T07:26:29;102641.22;;;0.17;95.22
40940;BME280;26666;50.156;7.700;2023-02-10T07:31:31;102642.06;;;0.21;95.96
40940;BME280;26666;50.156;7.700;2023-02-10T07:36:33;102651.63;;;0.19;95.29
40940;BME280;26666;50.156;7.700;2023-02-10T07:41:34;102671.63;;;0.05;96.42
40940;BME280;26666;50.156;7.700;2023-02-10T07:46:36;102663.81;;;0.12;96.20
40940;BME280;26666;50.156;7.700;2023-02-10T07:51:37;102667.25;;;0.14;96.14
40940;BME280;26666;50.156;7.700;2023-02-10T07:56:39;102672.34;;;0.39;96.68
40940;BME280;26666;50.156;7.700;2023-02-10T08:01:41;102681.91;;;0.32;96.04
40940;BME280;26666;50.156;7.700;2023-02-10T08:06:43;102674.91;;;0.45;96.67
40940;BME280;26666;50.156;7.700;2023-02-10T08:11:44;102668.84;;;0.40;96.58
40940;BME280;26666;50.156;7.700;2023-02-10T08:16:46;102667.00;;;0.56;96.25
40940;BME280;26666;50.156;7.700;2023-02-10T08:21:47;102668.69;;;0.66;96.85
40940;BME280;26666;50.156;7.700;2023-02-10T08:26:49;102662.41;;;0.92;96.22
40940;BME280;26666;50.156;7.700;2023-02-10T08:31:51;102662.25;;;1.09;96.74
40940;BME280;26666;50.156;7.700;2023-02-10T08:36:53;102662.81;;;1.42;96.77
40940;BME280;26666;50.156;7.700;2023-02-10T08:41:55;102655.34;;;1.87;97.83
40940;BME280;26666;50.156;7.700;2023-02-10T08:46:56;102658.47;;;2.16;96.83
40940;BME280;26666;50.156;7.700;2023-02-10T08:51:58;102646.56;;;2.59;94.76
40940;BME280;26666;50.156;7.700;2023-02-10T08:56:59;102642.31;;;3.03;94.17
40940;BME280;26666;50.156;7.700;2023-02-10T09:02:01;102643.72;;;3.23;94.76
40940;BME280;26666;50.156;7.700;2023-02-10T09:07:03;102640.34;;;3.18;92.18
40940;BME280;26666;50.156;7.700;2023-02-10T09:12:05;102645.75;;;3.07;93.48
40940;BME280;26666;50.156;7.700;2023-02-10T09:17:07;102651.09;;;3.01;92.38
40940;BME280;26666;50.156;7.700;2023-02-10T09:22:09;102662.78;;;3.29;93.11
40940;BME280;26666;50.156;7.700;2023-02-10T09:27:10;102668.69;;;3.41;91.96
40940;BME280;26666;50.156;7.700;2023-02-10T09:32:12;102667.34;;;3.65;91.07
40940;BME280;26666;50.156;7.700;2023-02-10T09:37:13;102667.31;;;3.68;92.03
40940;BME280;26666;50.156;7.700;2023-02-10T09:47:48;102677.75;;;3.68;91.65
40940;BME280;26666;50.156;7.700;2023-02-10T09:53:12;102675.03;;;3.72;89.83
40940;BME280;26666;50.156;7.700;2023-02-10T09:58:23;102678.56;;;4.13;89.75
40940;BME280;26666;50.156;7.700;2023-02-10T10:03:28;102682.91;;;4.14;90.75
40940;BME280;26666;50.156;7.700;2023-02-10T10:13:53;102681.56;;;3.95;91.50
40940;BME280;26666;50.156;7.700;2023-02-10T10:24:31;102693.81;;;4.33;90.77
40940;BME280;26666;50.156;7.700;2023-02-10T10:29:51;102703.56;;;4.27;89.74
40940;BME280;26666;50.156;7.700;2023-02-10T10:34:54;102700.63;;;4.42;90.65
40940;BME280;26666;50.156;7.700;2023-02-10T10:40:00;102698.25;;;4.69;89.54
40940;BME280;26666;50.156;7.700;2023-02-10T10:45:26;102690.81;;;4.88;87.93
40940;BME280;26666;50.156;7.700;2023-02-10T10:50:29;102691.41;;;5.01;86.47
40940;BME280;26666;50.156;7.700;2023-02-10T10:55:40;102683.63;;;4.96;85.29
40940;BME280;26666;50.156;7.700;2023-02-10T11:00:53;102684.53;;;4.97;85.23
40940;BME280;26666;50.156;7.700;2023-02-10T11:06:25;102668.88;;;4.92;86.14
40940;BME280;26666;50.156;7.700;2023-02-10T11:16:48;102665.63;;;4.82;86.02
40940;BME280;26666;50.156;7.700;2023-02-10T11:21:51;102660.28;;;4.88;88.79
40940;BME280;26666;50.156;7.700;2023-02-10T11:27:20;102663.22;;;5.43;85.39
40940;BME280;26666;50.156;7.700;2023-02-10T11:32:34;102671.16;;;5.06;85.39
40940;BME280;26666;50.156;7.700;2023-02-10T11:37:37;102663.41;;;5.03;86.59
40940;BME280;26666;50.156;7.700;2023-02-10T11:42:39;102660.41;;;5.17;88.58
40940;BME280;26666;50.156;7.700;2023-02-10T11:47:41;102664.97;;;5.43;86.85
40940;BME280;26666;50.156;7.700;2023-02-10T11:52:43;102662.19;;;5.49;86.96
40940;BME280;26666;50.156;7.700;2023-02-10T11:58:01;102656.25;;;5.42;86.92
40940;BME280;26666;50.156;7.700;2023-02-10T12:08:36;102644.56;;;5.21;87.83
40940;BME280;26666;50.156;7.700;2023-02-10T12:14:37;102656.25;;;5.42;86.73
40940;BME280;26666;50.156;7.700;2023-02-10T12:19:42;102657.25;;;5.37;87.17
40940;BME280;26666;50.156;7.700;2023-02-10T12:30:50;102642.09;;;5.15;88.68
40940;BME280;26666;50.156;7.700;2023-02-10T12:36:08;102639.59;;;5.45;87.54
40940;BME280;26666;50.156;7.700;2023-02-10T12:56:59;102623.16;;;5.05;89.21
40940;BME280;26666;50.156;7.700;2023-02-10T13:02:13;102622.09;;;5.12;88.38
40940;BME280;26666;50.156;7.700;2023-02-10T13:07:31;102613.25;;;5.17;88.60
40940;BME280;26666;50.156;7.700;2023-02-10T13:12:39;102612.88;;;4.98;89.45
40940;BME280;26666;50.156;7.700;2023-02-10T13:17:47;102607.16;;;5.16;88.82
40940;BME280;26666;50.156;7.700;2023-02-10T13:23:06;102609.53;;;5.25;88.56
40940;BME280;26666;50.156;7.700;2023-02-10T13:38:37;102598.59;;;5.41;86.13
40940;BME280;26666;50.156;7.700;2023-02-10T13:43:40;102608.03;;;5.48;87.24
40940;BME280;26666;50.156;7.700;2023-02-10T13:48:54;102593.44;;;5.69;87.49
40940;BME280;26666;50.156;7.700;2023-02-10T13:54:00;102595.31;;;5.64;86.11
40940;BME280;26666;50.156;7.700;2023-02-10T13:59:05;102583.81;;;5.38;85.67
40940;BME280;26666;50.156;7.700;2023-02-10T14:14:31;102577.94;;;5.61;85.96
40940;BME280;26666;50.156;7.700;2023-02-10T14:19:36;102582.16;;;5.65;86.24
40940;BME280;26666;50.156;7.700;2023-02-10T14:24:42;102581.66;;;5.84;84.42
40940;BME280;26666;50.156;7.700;2023-02-10T14:29:54;102572.03;;;5.83;85.66
40940;BME280;26666;50.156;7.700;2023-02-10T14:35:02;102568.28;;;5.91;86.59
40940;BME280;26666;50.156;7.700;2023-02-10T14:40:04;102573.69;;;5.85;87.59
40940;BME280;26666;50.156;7.700;2023-02-10T14:45:06;102568.28;;;5.62;86.59
40940;BME280;26666;50.156;7.700;2023-02-10T14:50:28;102561.00;;;5.71;88.58
40940;BME280;26666;50.156;7.700;2023-02-10T14:55:36;102556.31;;;5.53;89.34
40940;BME280;26666;50.156;7.700;2023-02-10T15:00:39;102542.06;;;5.32;90.40
40940;BME280;26666;50.156;7.700;2023-02-10T15:05:46;102535.56;;;5.14;91.08
40940;BME280;26666;50.156;7.700;2023-02-10T15:10:52;102545.56;;;5.00;91.67
40940;BME280;26666;50.156;7.700;2023-02-10T15:15:54;102542.31;;;4.90;91.22
40940;BME280;26666;50.156;7.700;2023-02-10T15:21:00;102542.88;;;4.68;92.66
40940;BME280;26666;50.156;7.700;2023-02-10T15:26:03;102546.63;;;4.60;93.34
40940;BME280;26666;50.156;7.700;2023-02-10T15:31:20;102546.09;;;4.45;93.83
40940;BME280;26666;50.156;7.700;2023-02-10T15:36:27;102539.34;;;4.37;94.68
40940;BME280;26666;50.156;7.700;2023-02-10T15:46:42;102540.75;;;4.12;95.66
40940;BME280;26666;50.156;7.700;2023-02-10T15:51:52;102537.28;;;4.12;96.07
40940;BME280;26666;50.156;7.700;2023-02-10T15:57:05;102541.03;;;4.02;95.96
40940;BME280;26666;50.156;7.700;2023-02-10T16:02:11;102532.38;;;4.00;96.84
40940;BME280;26666;50.156;7.700;2023-02-10T16:07:18;102532.66;;;3.87;96.49
40940;BME280;26666;50.156;7.700;2023-02-10T16:12:19;102538.91;;;3.80;96.61
40940;BME280;26666;50.156;7.700;2023-02-10T16:17:24;102542.78;;;3.62;95.97
40940;BME280;26666;50.156;7.700;2023-02-10T16:22:26;102542.78;;;3.62;95.61
40940;BME280;26666;50.156;7.700;2023-02-10T16:27:28;102536.06;;;3.50;95.69
40940;BME280;26666;50.156;7.700;2023-02-10T16:32:29;102542.31;;;3.42;95.65
40940;BME280;26666;50.156;7.700;2023-02-10T16:37:31;102529.44;;;3.32;96.27
40940;BME280;26666;50.156;7.700;2023-02-10T16:42:32;102536.53;;;3.27;96.53
40940;BME280;26666;50.156;7.700;2023-02-10T16:47:34;102518.72;;;3.03;97.54
40940;BME280;26666;50.156;7.700;2023-02-10T16:52:37;102530.00;;;3.05;97.33
40940;BME280;26666;50.156;7.700;2023-02-10T16:57:38;102527.41;;;3.03;96.75
40940;BME280;26666;50.156;7.700;2023-02-10T17:02:40;102535.38;;;2.95;96.59
40940;BME280;26666;50.156;7.700;2023-02-10T17:07:45;102547.69;;;2.90;96.25
40940;BME280;26666;50.156;7.700;2023-02-10T17:12:52;102540.97;;;2.77;96.18
40940;BME280;26666;50.156;7.700;2023-02-10T17:17:53;102545.38;;;2.72;97.00
40940;BME280;26666;50.156;7.700;2023-02-10T17:22:56;102561.94;;;2.72;97.15
40940;BME280;26666;50.156;7.700;2023-02-10T17:27:58;102562.00;;;2.66;97.95
40940;BME280;26666;50.156;7.700;2023-02-10T17:33:00;102575.91;;;2.68;98.09
40940;BME280;26666;50.156;7.700;2023-02-10T17:38:02;102578.72;;;2.58;99.25
40940;BME280;26666;50.156;7.700;2023-02-10T17:43:04;102587.47;;;2.53;98.44
40940;BME280;26666;50.156;7.700;2023-02-10T17:48:06;102587.47;;;2.53;99.11
40940;BME280;26666;50.156;7.700;2023-02-10T17:53:08;102580.59;;;2.48;99.98
40940;BME280;26666;50.156;7.700;2023-02-10T17:58:10;102585.13;;;2.35;99.94
40940;BME280;26666;50.156;7.700;2023-02-10T18:03:11;102595.56;;;2.36;99.14
40940;BME280;26666;50.156;7.700;2023-02-10T18:08:13;102604.09;;;2.48;99.21
40940;BME280;26666;50.156;7.700;2023-02-10T18:13:16;102602.53;;;2.36;98.79
40940;BME280;26666;50.156;7.700;2023-02-10T18:18:18;102600.13;;;2.22;99.24
40940;BME280;26666;50.156;7.700;2023-02-10T18:23:19;102591.53;;;2.15;99.31
40940;BME280;26666;50.156;7.700;2023-02-10T18:28:21;102593.56;;;1.95;98.13
40940;BME280;26666;50.156;7.700;2023-02-10T18:33:25;102587.50;;;1.93;100.00
40940;BME280;26666;50.156;7.700;2023-02-10T18:38:27;102591.63;;;2.09;100.00
40940;BME280;26666;50.156;7.700;2023-02-10T18:43:28;102588.78;;;2.25;99.93
40940;BME280;26666;50.156;7.700;2023-02-10T18:48:30;102587.25;;;2.11;100.00
40940;BME280;26666;50.156;7.700;2023-02-10T18:53:32;102582.03;;;2.11;100.00
40940;BME280;26666;50.156;7.700;2023-02-10T18:58:34;102586.50;;;2.02;100.00
40940;BME280;26666;50.156;7.700;2023-02-10T19:03:36;102573.53;;;1.99;100.00
40940;BME280;26666;50.156;7.700;2023-02-10T19:08:38;102575.31;;;1.95;100.00
40940;BME280;26666;50.156;7.700;2023-02-10T19:13:39;102573.44;;;2.05;100.00
40940;BME280;26666;50.156;7.700;2023-02-10T19:18:41;102566.75;;;1.85;100.00
40940;BME280;26666;50.156;7.700;2023-02-10T19:23:43;102571.78;;;1.99;100.00
40940;BME280;26666;50.156;7.700;2023-02-10T19:28:44;102578.78;;;1.94;100.00
40940;BME280;26666;50.156;7.700;2023-02-10T19:33:46;102575.53;;;1.80;100.00
40940;BME280;26666;50.156;7.700;2023-02-10T19:38:47;102578.03;;;1.86;100.00
40940;BME280;26666;50.156;7.700;2023-02-10T19:43:49;102585.97;;;1.75;100.00
40940;BME280;26666;50.156;7.700;2023-02-10T19:48:51;102575.59;;;1.73;100.00
40940;BME280;26666;50.156;7.700;2023-02-10T19:53:53;102569.56;;;1.68;100.00
40940;BME280;26666;50.156;7.700;2023-02-10T19:58:55;102566.31;;;1.52;100.00
40940;BME280;26666;50.156;7.700;2023-02-10T20:03:57;102577.41;;;1.65;100.00
40940;BME280;26666;50.156;7.700;2023-02-10T20:08:59;102586.69;;;1.88;100.00
40940;BME280;26666;50.156;7.700;2023-02-10T20:14:01;102589.59;;;1.66;100.00
40940;BME280;26666;50.156;7.700;2023-02-10T20:19:03;102584.38;;;1.66;100.00
40940;BME280;26666;50.156;7.700;2023-02-10T20:24:04;102580.09;;;1.59;100.00
40940;BME280;26666;50.156;7.700;2023-02-10T20:29:06;102577.47;;;1.62;100.00
40940;BME280;26666;50.156;7.700;2023-02-10T20:34:08;102573.19;;;1.58;100.00
40940;BME280;26666;50.156;7.700;2023-02-10T20:39:10;102570.59;;;1.58;100.00
40940;BME280;26666;50.156;7.700;2023-02-10T20:44:11;102555.03;;;1.52;100.00
40940;BME280;26666;50.156;7.700;2023-02-10T20:49:13;102543.91;;;1.37;100.00
40940;BME280;26666;50.156;7.700;2023-02-10T20:54:14;102533.34;;;1.48;100.00
40940;BME280;26666;50.156;7.700;2023-02-10T20:59:16;102518.56;;;1.50;100.00
40940;BME280;26666;50.156;7.700;2023-02-10T21:04:17;102515.41;;;1.90;100.00
40940;BME280;26666;50.156;7.700;2023-02-10T21:09:19;102526.31;;;1.53;100.00
40940;BME280;26666;50.156;7.700;2023-02-10T21:14:20;102519.78;;;1.87;100.00
40940;BME280;26666;50.156;7.700;2023-02-10T21:19:22;102515.28;;;1.98;100.00
40940;BME280;26666;50.156;7.700;2023-02-10T21:24:24;102516.03;;;2.06;100.00
40940;BME280;26666;50.156;7.700;2023-02-10T21:29:26;102515.34;;;1.95;100.00
40940;BME280;26666;50.156;7.700;2023-02-10T21:34:27;102511.91;;;1.93;100.00
40940;BME280;26666;50.156;7.700;2023-02-10T21:39:29;102496.25;;;1.93;100.00
40940;BME280;26666;50.156;7.700;2023-02-10T21:44:30;102495.56;;;1.82;100.00
40940;BME280;26666;50.156;7.700;2023-02-10T21:49:33;102498.47;;;1.60;100.00
40940;BME280;26666;50.156;7.700;2023-02-10T21:54:37;102510.47;;;1.72;100.00
40940;BME280;26666;50.156;7.700;2023-02-10T21:59:39;102513.72;;;1.86;100.00
40940;BME280;26666;50.156;7.700;2023-02-10T22:04:41;102508.41;;;1.92;100.00
40940;BME280;26666;50.156;7.700;2023-02-10T22:09:43;102513.09;;;1.67;100.00
40940;BME280;26666;50.156;7.700;2023-02-10T22:14:44;102525.69;;;2.00;100.00
40940;BME280;26666;50.156;7.700;2023-02-10T22:19:46;102516.16;;;1.99;100.00
40940;BME280;26666;50.156;7.700;2023-02-10T22:24:47;102512.53;;;2.07;100.00
40940;BME280;26666;50.156;7.700;2023-02-10T22:29:49;102497.88;;;2.00;100.00
40940;BME280;26666;50.156;7.700;2023-02-10T22:34:50;102493.31;;;2.13;100.00
40940;BME280;26666;50.156;7.700;2023-02-10T22:39:53;102507.69;;;2.39;100.00
40940;BME280;26666;50.156;7.700;2023-02-10T22:44:57;102514.56;;;2.44;100.00
40940;BME280;26666;50.156;7.700;2023-02-10T22:49:58;102528.00;;;2.72;100.00
40940;BME280;26666;50.156;7.700;2023-02-10T22:55:00;102541.78;;;2.81;100.00
40940;BME280;26666;50.156;7.700;2023-02-10T23:00:04;102535.84;;;2.71;100.00
40940;BME280;26666;50.156;7.700;2023-02-10T23:05:05;102526.16;;;2.76;100.00
40940;BME280;26666;50.156;7.700;2023-02-10T23:10:08;102525.94;;;2.40;100.00
40940;BME280;26666;50.156;7.700;2023-02-10T23:15:10;102519.94;;;2.33;100.00
40940;BME280;26666;50.156;7.700;2023-02-10T23:20:11;102517.91;;;2.51;100.00
40940;BME280;26666;50.156;7.700;2023-02-10T23:30:35;102500.44;;;2.54;100.00
40940;BME280;26666;50.156;7.700;2023-02-10T23:35:44;102496.59;;;2.75;100.00
40940;BME280;26666;50.156;7.700;2023-02-10T23:40:46;102503.03;;;2.56;100.00
40940;BME280;26666;50.156;7.700;2023-02-10T23:45:48;102493.19;;;2.70;100.00
40940;BME280;26666;50.156;7.700;2023-02-10T23:50:50;102494.38;;;2.54;100.00
40940;BME280;26666;50.156;7.700;2023-02-10T23:55:51;102482.13;;;2.59;100.00
